»·PEaware :: KLM420 KDEN-KABQ

KLM420 :: KDEN-KABQ

FLIGHT INFORMATION

Flight Status: Arrived
Operator:
KLM
More flights by this operator :: More flights under this callsign
Pilot: Anonymous 36068 (36068)
Aircraft: BEECH AIRCRAFT PREMIER
(PRM1)
More flights by this aircraft type
Origin: KDEN Denver Intl
United States
Destination: KABQ Albuquerque Intl Sunport
United States
More flights between these airports :: More routes between these airports
Route: SUDDZ1 SUDDZ DATME SNDIA4
File this flight plan on PilotEdge
Remarks:
Altitude:
(Current/Filed)
28,000ft
Speed:
(Current/Filed)
400kts
Departed: 20-Sep-21 07:41 AM
Arrived: 20-Sep-21 08:42 AM
Distance/Time
Traveled:
303nm/1:01
Distance/Time
To Go:
Arrived

Flight Plot

Page will automatically refresh every two minutes.

Flight plan parsing failed; only flown route is shown


Map Options




Map Legend


Flown Route
Filed Route
Departure Airport
Arrival Airport
Navaid (VOR, NDB)
Fix

Horizontal Profiles

Position Reports

Time Latitude Longitude Heading Altitude Ground
Speed
20-Sep-21 07:21 39.840043 -104.664825 179 5441ft 0kts
20-Sep-21 07:22 39.840043 -104.664825 179 5441ft 0kts
20-Sep-21 07:23 39.840043 -104.664825 179 5441ft 0kts
20-Sep-21 07:24 39.840043 -104.664825 179 5441ft 0kts
20-Sep-21 07:25 39.840043 -104.664825 179 5441ft 0kts
20-Sep-21 07:26 39.840043 -104.664825 179 5441ft 0kts
20-Sep-21 07:27 39.840043 -104.664825 179 5441ft 0kts
20-Sep-21 07:28 39.840043 -104.664825 179 5441ft 0kts
20-Sep-21 07:29 39.840043 -104.664825 179 5441ft 0kts
20-Sep-21 07:30 39.840043 -104.664825 179 5441ft 0kts
20-Sep-21 07:31 39.840043 -104.664825 179 5441ft 0kts
20-Sep-21 07:32 39.840043 -104.664825 179 5441ft 0kts
20-Sep-21 07:33 39.840043 -104.664825 179 5441ft 0kts
20-Sep-21 07:34 39.839910 -104.664812 166 5441ft 6kts
20-Sep-21 07:35 39.838006 -104.662571 180 5441ft 17kts
20-Sep-21 07:36 39.832807 -104.662645 180 5441ft 22kts
20-Sep-21 07:37 39.828624 -104.662604 149 5441ft 8kts
20-Sep-21 07:38 39.828429 -104.662118 91 5441ft 0kts
20-Sep-21 07:39 39.829204 -104.660537 1 5441ft 26kts
20-Sep-21 07:40 39.864922 -104.660714 1 6623ft 174kts
20-Sep-21 07:41 39.918475 -104.659416 359 9174ft 214kts
20-Sep-21 07:42 39.981970 -104.657567 357 11699ft 243kts
20-Sep-21 07:43 40.051499 -104.655797 355 14209ft 257kts
20-Sep-21 07:44 40.078714 -104.712938 234 16738ft 267kts
20-Sep-21 07:45 40.000461 -104.706265 164 18834ft 320kts
20-Sep-21 07:46 39.916749 -104.684830 198 20863ft 302kts
20-Sep-21 07:48 39.833486 -104.701612 198 22874ft 303kts
20-Sep-21 07:49 39.749731 -104.718141 198 24544ft 310kts
20-Sep-21 07:50 39.663815 -104.734985 199 26068ft 316kts
20-Sep-21 07:51 39.576860 -104.751993 199 27588ft 317kts
20-Sep-21 07:52 39.487217 -104.769614 198 28174ft 345kts
20-Sep-21 07:53 39.387396 -104.789013 198 28172ft 380kts
20-Sep-21 07:54 39.279433 -104.809978 197 28157ft 404kts
20-Sep-21 07:55 39.165587 -104.831967 197 28133ft 421kts
20-Sep-21 07:56 39.052706 -104.865243 205 28123ft 411kts
20-Sep-21 07:57 38.944839 -104.907524 203 28118ft 404kts
20-Sep-21 07:58 38.837687 -104.948930 202 28115ft 400kts
20-Sep-21 07:59 38.731537 -104.989821 202 28103ft 399kts
20-Sep-21 08:00 38.625402 -105.030583 202 28099ft 399kts
20-Sep-21 08:01 38.518943 -105.071355 203 28099ft 400kts
20-Sep-21 08:02 38.412697 -105.111919 203 28099ft 401kts
20-Sep-21 08:03 38.305485 -105.152762 203 28099ft 403kts
20-Sep-21 08:04 38.198308 -105.193415 203 28105ft 404kts
20-Sep-21 08:05 38.090489 -105.234183 203 28141ft 404kts
20-Sep-21 08:06 37.983198 -105.274634 203 28165ft 404kts
20-Sep-21 08:07 37.877660 -105.320630 213 28183ft 396kts
20-Sep-21 08:08 37.780535 -105.384946 214 28196ft 395kts
20-Sep-21 08:09 37.683553 -105.449429 214 28196ft 395kts
20-Sep-21 08:09 37.602530 -105.503160 214 28195ft 395kts
20-Sep-21 08:11 37.488928 -105.578251 214 28195ft 395kts
20-Sep-21 08:11 37.408176 -105.631453 214 28195ft 395kts
20-Sep-21 08:13 37.294526 -105.706154 213 28205ft 397kts
20-Sep-21 08:14 37.196486 -105.770371 213 28204ft 398kts
20-Sep-21 08:15 37.098417 -105.834447 213 28204ft 399kts
20-Sep-21 08:16 37.000256 -105.898482 212 28202ft 399kts
20-Sep-21 08:16 36.918100 -105.951744 211 28210ft 399kts
20-Sep-21 08:17 36.819645 -106.015473 211 28237ft 399kts
20-Sep-21 08:19 36.704981 -106.089482 212 28255ft 399kts
20-Sep-21 08:20 36.602267 -106.143265 205 28255ft 403kts
20-Sep-21 08:20 36.514472 -106.182610 205 28257ft 403kts
20-Sep-21 08:21 36.407762 -106.230098 204 26327ft 406kts
20-Sep-21 08:23 36.284833 -106.284492 204 24270ft 403kts
20-Sep-21 08:24 36.179100 -106.331039 204 22764ft 405kts
20-Sep-21 08:24 36.091020 -106.369513 203 21514ft 405kts
20-Sep-21 08:25 35.986118 -106.414741 203 20277ft 385kts
20-Sep-21 08:26 35.889409 -106.455934 202 19507ft 361kts
20-Sep-21 08:27 35.792877 -106.495431 202 17699ft 359kts
20-Sep-21 08:28 35.700114 -106.533288 201 15057ft 341kts
20-Sep-21 08:29 35.617525 -106.566770 201 14029ft 296kts
20-Sep-21 08:30 35.537533 -106.606790 207 13999ft 320kts
20-Sep-21 08:31 35.457220 -106.650045 206 12858ft 311kts
20-Sep-21 08:32 35.379454 -106.691906 205 10077ft 291kts
20-Sep-21 08:33 35.305391 -106.724849 172 9801ft 290kts
20-Sep-21 08:34 35.254481 -106.667534 118 8994ft 242kts
20-Sep-21 08:35 35.216962 -106.598272 141 8736ft 252kts
20-Sep-21 08:36 35.157208 -106.558285 152 7335ft 233kts
20-Sep-21 08:37 35.106468 -106.526561 152 6872ft 182kts
20-Sep-21 08:38 35.061041 -106.507632 194 6560ft 168kts
20-Sep-21 08:39 35.043680 -106.549058 274 5803ft 138kts
20-Sep-21 08:40 35.044170 -106.592133 270 5328ft 101kts
20-Sep-21 08:41 35.044936 -106.602337 299 5322ft 0kts
20-Sep-21 08:42 35.045676 -106.604073 284 5322ft 20kts
20-Sep-21 08:43 35.045795 -106.610575 269 5318ft 19kts
20-Sep-21 08:44 35.046563 -106.614682 296 5316ft 5kts

Navigation Log

Ident Type
Flight plan parsing failed, navigation log unavailable